createdAt,value
2018-06-12T00:00:20.088Z,864.86
2018-06-12T00:01:18.894Z,864.89
2018-06-12T00:03:12.576Z,864.91
2018-06-12T00:04:12.235Z,864.91
2018-06-12T00:06:06.171Z,864.86
2018-06-12T00:07:05.578Z,864.91
2018-06-12T00:08:59.337Z,864.91
2018-06-12T00:09:59.296Z,864.92
2018-06-12T00:11:52.508Z,864.93
2018-06-12T00:12:52.674Z,864.94
2018-06-12T00:14:45.993Z,865.00
2018-06-12T00:15:45.627Z,864.98
2018-06-12T00:17:39.195Z,865.03
2018-06-12T00:18:39.336Z,865.03
2018-06-12T00:20:32.321Z,865.04
2018-06-12T00:21:32.660Z,865.05
2018-06-12T00:23:26.266Z,865.09
2018-06-12T00:24:25.657Z,865.12
2018-06-12T00:26:19.020Z,865.09
2018-06-12T00:27:19.364Z,865.11
2018-06-12T00:29:12.583Z,865.11
2018-06-12T00:30:12.350Z,865.09
2018-06-12T00:32:05.707Z,865.09
2018-06-12T00:33:05.698Z,865.10
2018-06-12T00:34:59.287Z,865.09
2018-06-12T00:35:59.038Z,865.10
2018-06-12T00:37:52.411Z,865.11
2018-06-12T00:38:52.398Z,865.14
2018-06-12T00:40:46.341Z,865.11
2018-06-12T00:41:45.747Z,865.08
2018-06-12T00:43:39.095Z,865.07
2018-06-12T00:44:39.084Z,865.09
2018-06-12T00:46:33.577Z,865.10
2018-06-12T00:47:32.792Z,865.06
2018-06-12T00:49:26.181Z,865.10
2018-06-12T00:50:26.137Z,865.13
2018-06-12T00:52:19.658Z,865.16
2018-06-12T00:53:19.152Z,865.10
2018-06-12T00:55:12.479Z,865.05
2018-06-12T00:56:12.468Z,865.07
2018-06-12T00:58:06.403Z,865.12
2018-06-12T00:59:06.169Z,865.10
2018-06-12T01:00:59.517Z,865.05
2018-06-12T01:01:59.159Z,865.05
2018-06-12T01:03:53.055Z,865.04
2018-06-12T01:04:52.897Z,865.03
2018-06-12T01:06:46.221Z,865.04
2018-06-12T01:07:45.854Z,865.04
2018-06-12T01:09:39.425Z,864.99
2018-06-12T01:10:39.555Z,865.01
2018-06-12T01:12:32.916Z,865.05
2018-06-12T01:13:32.888Z,864.97
2018-06-12T01:15:26.461Z,864.98
2018-06-12T01:16:26.250Z,864.93
2018-06-12T01:18:19.246Z,864.90
2018-06-12T01:19:19.577Z,864.94
2018-06-12T01:21:13.122Z,864.90
2018-06-12T01:22:12.903Z,864.91
2018-06-12T01:24:05.932Z,864.97
2018-06-12T01:25:06.316Z,864.94
2018-06-12T01:26:59.493Z,864.96
2018-06-12T01:27:59.625Z,864.98
2018-06-12T01:29:52.619Z,864.92
2018-06-12T01:30:52.943Z,864.90
2018-06-12T01:32:46.191Z,864.85
2018-06-12T01:33:46.285Z,864.87
2018-06-12T01:35:39.358Z,864.83
2018-06-12T01:36:39.313Z,864.83
2018-06-12T01:38:33.510Z,864.88
2018-06-12T01:39:33.002Z,864.87
2018-06-12T01:41:26.361Z,864.81
2018-06-12T01:42:26.036Z,864.82
2018-06-12T01:44:19.576Z,864.84
2018-06-12T01:45:19.741Z,864.84
2018-06-12T01:47:12.706Z,864.85
2018-06-12T01:48:13.059Z,864.83
2018-06-12T01:50:06.645Z,864.83
2018-06-12T01:51:06.041Z,864.83
2018-06-12T01:52:59.395Z,864.82
2018-06-12T01:53:59.741Z,864.80
2018-06-12T01:55:52.941Z,864.69
2018-06-12T01:56:52.729Z,864.75
2018-06-12T01:58:46.081Z,864.81
2018-06-12T01:59:46.077Z,864.83
2018-06-12T02:01:40.012Z,864.79
2018-06-12T02:02:39.778Z,864.79
2018-06-12T02:04:32.776Z,864.79
2018-06-12T02:05:33.128Z,864.80
2018-06-12T02:07:26.624Z,864.82
2018-06-12T02:08:26.111Z,864.78
2018-06-12T02:10:19.823Z,864.82
2018-06-12T02:11:19.454Z,864.81
2018-06-12T02:13:13.043Z,864.80
2018-06-12T02:14:12.802Z,864.83
2018-06-12T02:16:06.526Z,864.80
2018-06-12T02:17:06.505Z,864.78
2018-06-12T02:18:59.713Z,864.84
2018-06-12T02:19:59.864Z,864.77
2018-06-12T02:21:52.854Z,864.79
2018-06-12T02:22:52.879Z,864.80
2018-06-12T02:24:46.782Z,864.77
2018-06-12T02:27:18.252Z,864.69
2018-06-12T02:28:18.245Z,864.69
2018-06-12T02:30:12.191Z,864.76
2018-06-12T02:31:11.588Z,864.71
2018-06-12T02:33:06.293Z,864.65
2018-06-12T02:34:06.290Z,864.77
2018-06-12T02:35:59.910Z,864.72
2018-06-12T02:36:59.269Z,864.70
2018-06-12T02:38:52.984Z,864.74
2018-06-12T02:39:53.009Z,864.77
2018-06-12T02:41:46.185Z,864.67
2018-06-12T02:42:46.323Z,864.65
2018-06-12T02:44:39.686Z,864.66
2018-06-12T02:45:39.690Z,864.67
2018-06-12T02:47:33.262Z,864.67
2018-06-12T02:48:32.664Z,864.65
2018-06-12T02:50:26.022Z,864.71
2018-06-12T02:51:26.015Z,864.70
2018-06-12T02:53:19.560Z,864.70
2018-06-12T02:54:19.709Z,864.66
2018-06-12T02:56:13.357Z,864.68
2018-06-12T02:57:12.714Z,864.71
2018-06-12T02:59:06.291Z,864.68
2018-06-12T03:00:06.452Z,864.71
2018-06-12T03:01:59.812Z,864.69
2018-06-12T03:02:59.408Z,864.72
2018-06-12T03:04:53.292Z,864.71
2018-06-12T03:05:52.753Z,864.72
2018-06-12T03:07:46.703Z,864.70
2018-06-12T03:08:46.098Z,864.69
2018-06-12T03:10:39.669Z,864.71
2018-06-12T03:11:39.442Z,864.64
2018-06-12T03:13:33.164Z,864.63
2018-06-12T03:14:33.148Z,864.61
2018-06-12T03:16:25.892Z,864.65
2018-06-12T03:17:25.652Z,864.63
2018-06-12T03:19:19.007Z,864.55
2018-06-12T03:20:19.010Z,864.49
2018-06-12T03:22:12.577Z,864.57
2018-06-12T03:23:12.394Z,864.58
2018-06-12T03:25:05.700Z,864.56
2018-06-12T03:26:05.691Z,864.53
2018-06-12T03:27:59.249Z,864.52
2018-06-12T03:28:59.038Z,864.51
2018-06-12T03:30:52.787Z,864.49
2018-06-12T03:31:52.384Z,864.49
2018-06-12T03:33:46.920Z,864.37
2018-06-12T03:34:46.122Z,864.43
2018-06-12T03:36:39.088Z,864.35
2018-06-12T03:37:39.072Z,864.43
2018-06-12T03:39:33.011Z,864.45
2018-06-12T03:40:32.419Z,864.42
2018-06-12T03:42:25.784Z,864.39
2018-06-12T03:43:26.133Z,864.39
2018-06-12T03:45:19.355Z,864.31
2018-06-12T03:46:19.120Z,864.29
2018-06-12T03:48:12.477Z,864.25
2018-06-12T03:49:12.491Z,864.31
2018-06-12T03:52:37.716Z,864.26
2018-06-12T03:53:37.397Z,864.25
2018-06-12T03:55:30.754Z,864.16
2018-06-12T03:56:30.744Z,864.17
2018-06-12T03:58:24.643Z,864.20
2018-06-12T03:59:24.449Z,864.17
2018-06-12T04:01:17.797Z,864.15
2018-06-12T04:02:17.444Z,864.13
2018-06-12T04:04:11.326Z,864.14
2018-06-12T04:05:11.120Z,864.19
2018-06-12T04:07:04.493Z,864.13
2018-06-12T04:08:04.487Z,864.10
2018-06-12T04:09:58.052Z,864.12
2018-06-12T04:10:57.895Z,864.17
2018-06-12T04:12:50.824Z,864.15
2018-06-12T04:13:51.175Z,864.14
2018-06-12T04:15:44.724Z,864.18
2018-06-12T04:16:44.518Z,864.14
2018-06-12T04:18:37.933Z,864.11
2018-06-12T04:19:37.864Z,864.15
2018-06-12T04:21:31.050Z,864.02
2018-06-12T04:22:30.857Z,864.09
2018-06-12T04:24:24.220Z,864.06
2018-06-12T04:25:24.553Z,864.10
2018-06-12T04:27:18.127Z,864.07
2018-06-12T04:28:17.550Z,864.07
2018-06-12T04:30:10.908Z,864.02
2018-06-12T04:31:10.897Z,864.01
2018-06-12T04:33:04.435Z,863.98
2018-06-12T04:34:04.248Z,864.00
2018-06-12T04:35:57.967Z,863.96
2018-06-12T04:36:57.986Z,863.97
2018-06-12T04:38:51.540Z,863.92
2018-06-12T04:39:51.302Z,863.93
2018-06-12T04:41:44.293Z,863.93
2018-06-12T04:42:44.284Z,863.86
2018-06-12T04:44:37.963Z,863.95
2018-06-12T04:45:37.958Z,864.01
2018-06-12T04:47:31.351Z,863.96
2018-06-12T04:48:30.980Z,863.89
2018-06-12T04:50:24.925Z,863.87
2018-06-12T04:51:24.326Z,863.91
2018-06-12T04:53:18.037Z,863.85
2018-06-12T04:54:18.023Z,863.79
2018-06-12T04:56:11.205Z,863.80
2018-06-12T04:57:11.015Z,863.82
2018-06-12T04:59:04.964Z,863.82
2018-06-12T05:00:04.720Z,863.85
2018-06-12T05:01:58.371Z,863.80
2018-06-12T05:02:58.034Z,863.77
2018-06-12T05:04:51.451Z,863.74
2018-06-12T05:05:51.421Z,863.76
2018-06-12T05:07:44.987Z,863.78
2018-06-12T05:08:44.406Z,863.76
2018-06-12T05:10:38.184Z,863.75
2018-06-12T05:11:37.748Z,863.74
2018-06-12T05:13:31.683Z,863.78
2018-06-12T05:14:31.444Z,863.80
2018-06-12T05:16:24.451Z,863.79
2018-06-12T05:17:24.440Z,863.75
2018-06-12T05:19:18.367Z,863.73
2018-06-12T05:20:17.785Z,863.68
2018-06-12T05:22:11.143Z,863.68
2018-06-12T05:23:11.496Z,863.66
2018-06-12T05:25:04.725Z,863.68
2018-06-12T05:26:04.472Z,863.67
2018-06-12T05:27:58.159Z,863.67
2018-06-12T05:28:58.177Z,863.72
2018-06-12T05:30:51.382Z,863.68
2018-06-12T05:31:51.514Z,863.66
2018-06-12T05:33:44.889Z,863.61
2018-06-12T05:34:44.516Z,863.58
2018-06-12T05:36:38.399Z,863.52
2018-06-12T05:37:38.219Z,863.61
2018-06-12T05:39:31.220Z,863.62
2018-06-12T05:40:31.209Z,863.60
2018-06-12T05:42:25.083Z,863.59
2018-06-12T05:43:24.914Z,863.51
2018-06-12T05:45:17.907Z,863.53
2018-06-12T05:46:18.250Z,863.58
2018-06-12T05:48:11.844Z,863.53
2018-06-12T05:49:11.245Z,863.57
2018-06-12T05:51:04.595Z,863.49
2018-06-12T05:52:04.589Z,863.45
2018-06-12T05:53:58.504Z,863.44
2018-06-12T05:54:57.931Z,863.50
2018-06-12T05:56:50.815Z,863.44
2018-06-12T05:57:50.803Z,863.45
2018-06-12T05:59:44.433Z,863.42
2018-06-12T06:00:44.531Z,863.49
2018-06-12T06:02:37.507Z,863.46
2018-06-12T06:03:37.890Z,863.45
2018-06-12T06:05:31.429Z,863.45
2018-06-12T06:06:31.202Z,863.42
2018-06-12T06:08:24.195Z,863.47
2018-06-12T06:09:24.223Z,863.43
2018-06-12T06:12:50.217Z,863.42
2018-06-12T06:13:49.952Z,863.35
2018-06-12T06:15:43.871Z,863.38
2018-06-12T06:16:42.939Z,863.37
2018-06-12T06:18:37.452Z,863.37
2018-06-12T06:19:36.288Z,863.34
2018-06-12T06:21:29.650Z,863.36
2018-06-12T06:22:30.012Z,863.33
2018-06-12T06:24:23.660Z,863.30
2018-06-12T06:25:23.349Z,863.29
2018-06-12T06:27:17.290Z,863.35
2018-06-12T06:28:16.692Z,863.32
2018-06-12T06:30:09.861Z,863.31
2018-06-12T06:31:10.034Z,863.32
2018-06-12T06:33:03.034Z,863.36
2018-06-12T06:34:03.389Z,863.34
2018-06-12T06:35:56.590Z,863.33
2018-06-12T06:36:56.378Z,863.39
2018-06-12T06:38:50.083Z,863.33
2018-06-12T06:39:49.717Z,863.29
2018-06-12T06:41:43.646Z,863.24
2018-06-12T06:42:43.595Z,863.27
2018-06-12T06:44:36.426Z,863.25
2018-06-12T06:45:36.771Z,863.31
2018-06-12T06:47:30.321Z,863.29
2018-06-12T06:48:30.125Z,863.23
2018-06-12T06:50:23.216Z,863.20
2018-06-12T06:51:23.000Z,863.22
2018-06-12T06:53:16.225Z,863.16
2018-06-12T06:54:15.988Z,863.17
2018-06-12T06:56:09.344Z,863.17
2018-06-12T06:57:09.691Z,863.16
2018-06-12T06:59:03.283Z,863.11
2018-06-12T07:00:02.707Z,863.12
2018-06-12T07:01:56.951Z,863.10
2018-06-12T07:02:56.028Z,863.09
2018-06-12T07:04:50.189Z,863.11
2018-06-12T07:05:49.368Z,863.08
2018-06-12T07:07:42.844Z,863.04
2018-06-12T07:08:43.074Z,863.14
2018-06-12T07:10:36.741Z,863.10
2018-06-12T07:11:36.428Z,863.07
2018-06-12T07:13:29.788Z,863.08
2018-06-12T07:14:29.819Z,863.08
2018-06-12T07:16:22.998Z,863.12
2018-06-12T07:17:23.135Z,863.05
2018-06-12T07:19:16.479Z,863.11
2018-06-12T07:20:16.449Z,863.09
2018-06-12T07:22:10.041Z,863.04
2018-06-12T07:23:09.468Z,863.13
2018-06-12T07:25:02.832Z,863.11
2018-06-12T07:26:03.176Z,863.02
2018-06-12T07:27:56.746Z,863.17
2018-06-12T07:28:56.533Z,863.15
2018-06-12T07:30:50.111Z,863.12
2018-06-12T07:31:49.502Z,863.08
2018-06-12T07:33:43.447Z,863.16
2018-06-12T07:34:43.207Z,863.12
2018-06-12T07:36:36.533Z,863.12
2018-06-12T07:37:36.279Z,863.11
2018-06-12T07:39:30.366Z,863.07
2018-06-12T07:40:29.907Z,863.14
2018-06-12T07:42:23.259Z,863.11
2018-06-12T07:43:23.237Z,863.10
2018-06-12T07:45:17.073Z,863.10
2018-06-12T07:46:16.581Z,863.15
2018-06-12T07:48:10.188Z,863.10
2018-06-12T07:49:09.586Z,863.12
2018-06-12T07:51:03.138Z,863.14
2018-06-12T07:52:03.305Z,863.17
2018-06-12T07:53:56.642Z,863.18
2018-06-12T07:54:56.336Z,863.11
2018-06-12T07:56:50.201Z,863.15
2018-06-12T07:57:49.984Z,863.11
2018-06-12T07:59:43.336Z,863.13
2018-06-12T08:00:42.966Z,863.17
2018-06-12T08:02:37.131Z,863.12
2018-06-12T08:03:36.314Z,863.09
2018-06-12T08:05:29.995Z,863.12
2018-06-12T08:06:29.656Z,863.14
2018-06-12T08:08:23.234Z,863.06
2018-06-12T08:09:23.006Z,863.12
2018-06-12T08:11:16.691Z,863.17
2018-06-12T08:12:16.925Z,863.14
2018-06-12T08:14:09.920Z,863.10
2018-06-12T08:15:10.035Z,863.07
2018-06-12T08:17:03.070Z,863.08
2018-06-12T08:18:03.085Z,863.10
2018-06-12T08:19:56.959Z,863.18
2018-06-12T08:20:56.761Z,863.11
2018-06-12T08:22:50.120Z,863.08
2018-06-12T08:23:49.756Z,863.10
2018-06-12T08:25:43.291Z,863.01
2018-06-12T08:26:43.459Z,863.11
2018-06-12T08:28:36.823Z,863.04
2018-06-12T08:29:36.827Z,863.05
2018-06-12T08:31:30.627Z,863.01
2018-06-12T08:32:29.803Z,863.03
2018-06-12T08:34:23.557Z,863.00
2018-06-12T08:35:23.151Z,863.04
2018-06-12T08:37:16.733Z,863.03
2018-06-12T08:38:16.867Z,863.02
2018-06-12T08:40:10.224Z,863.08
2018-06-12T08:41:09.860Z,863.04
2018-06-12T08:43:03.769Z,863.10
2018-06-12T08:44:03.563Z,863.04
2018-06-12T08:45:56.916Z,863.01
2018-06-12T08:46:56.552Z,863.03
2018-06-12T08:48:50.114Z,862.96
2018-06-12T08:49:50.258Z,863.08
2018-06-12T08:51:43.253Z,863.02
2018-06-12T08:52:43.244Z,863.07
2018-06-12T08:54:37.157Z,863.04
2018-06-12T08:55:36.622Z,863.09
2018-06-12T08:57:29.947Z,862.95
2018-06-12T08:58:30.274Z,862.99
2018-06-12T09:00:23.837Z,862.99
2018-06-12T09:01:23.288Z,863.05
2018-06-12T09:03:16.970Z,863.04
2018-06-12T09:04:16.628Z,863.05
2018-06-12T09:06:10.213Z,863.06
2018-06-12T09:07:10.302Z,863.07
2018-06-12T09:09:03.336Z,863.05
2018-06-12T09:10:03.336Z,863.06
2018-06-12T09:11:57.290Z,862.96
2018-06-12T09:12:56.672Z,862.95
2018-06-12T09:14:50.514Z,862.97
2018-06-12T09:15:50.020Z,863.01
2018-06-12T09:17:43.570Z,862.95
2018-06-12T09:18:43.725Z,862.98
2018-06-12T09:20:37.066Z,862.91
2018-06-12T09:21:37.061Z,862.91
2018-06-12T09:23:30.300Z,862.91
2018-06-12T09:24:30.052Z,862.99
2018-06-12T09:26:24.356Z,862.95
2018-06-12T09:27:23.746Z,862.90
2018-06-12T09:29:17.328Z,862.93
2018-06-12T09:30:17.137Z,862.94
2018-06-12T09:32:10.467Z,862.96
2018-06-12T09:33:10.095Z,862.97
2018-06-12T09:35:03.663Z,862.97
2018-06-12T09:36:03.444Z,862.93
2018-06-12T09:37:56.787Z,863.00
2018-06-12T09:38:56.781Z,862.98
2018-06-12T09:40:50.713Z,862.97
2018-06-12T09:41:50.127Z,863.00
2018-06-12T09:43:44.078Z,862.99
2018-06-12T09:44:43.476Z,863.01
2018-06-12T09:46:37.050Z,863.02
2018-06-12T09:47:37.215Z,863.03
2018-06-12T09:49:30.541Z,863.03
2018-06-12T09:50:30.171Z,862.99
2018-06-12T09:52:24.064Z,863.08
2018-06-12T09:53:23.880Z,863.07
2018-06-12T09:55:17.243Z,863.09
2018-06-12T09:56:17.229Z,863.08
2018-06-12T09:58:10.463Z,863.09
2018-06-12T09:59:10.573Z,863.12
2018-06-12T10:01:03.591Z,863.12
2018-06-12T10:02:03.908Z,863.13
2018-06-12T10:03:57.548Z,863.10
2018-06-12T10:04:56.926Z,863.08
2018-06-12T10:06:50.672Z,863.09
2018-06-12T10:07:50.318Z,863.11
2018-06-12T10:09:43.804Z,863.13
2018-06-12T10:10:43.619Z,863.14
2018-06-12T10:12:37.330Z,863.20
2018-06-12T10:13:37.319Z,863.19
2018-06-12T10:15:30.563Z,863.27
2018-06-12T10:16:30.702Z,863.27
2018-06-12T10:18:24.019Z,863.26
2018-06-12T10:19:23.654Z,863.22
2018-06-12T10:21:17.235Z,863.24
2018-06-12T10:22:17.324Z,863.26
2018-06-12T10:25:43.007Z,863.28
2018-06-12T10:26:42.772Z,863.30
2018-06-12T10:28:36.342Z,863.34
2018-06-12T10:29:36.112Z,863.37
2018-06-12T10:31:29.499Z,863.36
2018-06-12T10:32:29.093Z,863.36
2018-06-12T10:34:23.038Z,863.41
2018-06-12T10:35:22.798Z,863.43
2018-06-12T10:37:16.203Z,863.42
2018-06-12T10:38:15.793Z,863.44
2018-06-12T10:40:09.396Z,863.49
2018-06-12T10:41:09.137Z,863.51
2018-06-12T10:43:02.853Z,863.52
2018-06-12T10:44:02.878Z,863.52
2018-06-12T10:45:56.059Z,863.55
2018-06-12T10:46:55.831Z,863.57
2018-06-12T10:48:49.544Z,863.59
2018-06-12T10:49:49.530Z,863.58
2018-06-12T10:51:43.979Z,863.62
2018-06-12T10:52:42.531Z,863.62
2018-06-12T10:54:36.260Z,863.60
2018-06-12T10:55:35.911Z,863.62
2018-06-12T10:57:29.772Z,863.60
2018-06-12T10:58:29.220Z,863.66
2018-06-12T11:00:22.954Z,863.66
2018-06-12T11:01:22.918Z,863.64
2018-06-12T11:03:16.508Z,863.69
2018-06-12T11:04:15.921Z,863.70
2018-06-12T11:06:09.874Z,863.70
2018-06-12T11:07:09.265Z,863.70
2018-06-12T11:09:02.836Z,863.74
2018-06-12T11:10:02.611Z,863.74
2018-06-12T11:11:56.311Z,863.74
2018-06-12T11:12:56.297Z,863.74
2018-06-12T11:14:49.534Z,863.74
2018-06-12T11:15:49.299Z,863.76
2018-06-12T11:17:43.021Z,863.76
2018-06-12T11:18:45.240Z,863.75
2018-06-12T11:20:39.144Z,863.75
2018-06-12T11:21:36.582Z,863.77
2018-06-12T11:23:29.941Z,863.79
2018-06-12T11:24:29.713Z,863.79
2018-06-12T11:26:22.905Z,863.79
2018-06-12T11:27:22.714Z,863.77
2018-06-12T11:29:16.051Z,863.78
2018-06-12T11:30:16.043Z,863.79
2018-06-12T11:32:09.635Z,863.81
2018-06-12T11:33:09.463Z,863.83
2018-06-12T11:35:02.755Z,863.81
2018-06-12T11:36:02.735Z,863.81
2018-06-12T11:37:56.619Z,863.80
2018-06-12T11:38:56.085Z,863.82
2018-06-12T11:40:50.359Z,863.79
2018-06-12T11:41:49.427Z,863.80
2018-06-12T11:43:43.029Z,863.83
2018-06-12T11:44:42.770Z,863.79
2018-06-12T11:46:36.127Z,863.85
2018-06-12T11:47:36.117Z,863.85
2018-06-12T11:49:29.698Z,863.87
2018-06-12T11:50:29.461Z,863.87
2018-06-12T11:52:22.817Z,863.93
2018-06-12T11:53:22.805Z,863.92
2018-06-12T11:55:16.747Z,863.97
2018-06-12T11:56:16.481Z,863.97
2018-06-12T11:58:09.502Z,864.04
2018-06-12T11:59:09.845Z,864.06
2018-06-12T12:01:03.080Z,864.05
2018-06-12T12:02:02.843Z,864.08
2018-06-12T12:03:56.534Z,864.07
2018-06-12T12:04:56.197Z,864.08
2018-06-12T12:06:49.771Z,864.13
2018-06-12T12:07:49.896Z,864.13
2018-06-12T12:09:42.899Z,864.17
2018-06-12T12:10:43.230Z,864.18
2018-06-12T12:12:36.780Z,864.18
2018-06-12T12:13:36.585Z,864.17
2018-06-12T12:15:29.584Z,864.19
2018-06-12T12:16:29.573Z,864.24
2018-06-12T12:18:23.108Z,864.25
2018-06-12T12:19:22.920Z,864.28
2018-06-12T12:21:16.668Z,864.29
2018-06-12T12:22:16.605Z,864.29
2018-06-12T12:24:10.393Z,864.28
2018-06-12T12:25:09.954Z,864.31
2018-06-12T12:27:03.308Z,864.32
2018-06-12T12:28:03.319Z,864.33
2018-06-12T12:29:56.532Z,864.34
2018-06-12T12:30:56.325Z,864.35
2018-06-12T12:32:49.500Z,864.36
2018-06-12T12:33:49.163Z,864.34
2018-06-12T12:35:43.083Z,864.34
2018-06-12T12:36:42.864Z,864.31
2018-06-12T12:38:36.254Z,864.28
2018-06-12T12:39:36.208Z,864.25
2018-06-12T12:41:29.754Z,864.31
2018-06-12T12:42:29.196Z,864.30
2018-06-12T12:44:22.943Z,864.25
2018-06-12T12:45:22.541Z,864.29
2018-06-12T12:47:16.128Z,864.25
2018-06-12T12:48:15.902Z,864.27
2018-06-12T12:50:09.236Z,864.28
2018-06-12T12:51:09.593Z,864.31
2018-06-12T12:53:03.259Z,864.29
2018-06-12T12:54:02.932Z,864.26
2018-06-12T12:55:56.260Z,864.26
2018-06-12T12:56:55.922Z,864.22
2018-06-12T12:58:49.503Z,864.22
2018-06-12T12:59:49.291Z,864.21
2018-06-12T13:01:42.983Z,864.28
2018-06-12T13:02:42.610Z,864.31
2018-06-12T13:04:36.167Z,864.35
2018-06-12T13:05:35.963Z,864.34
2018-06-12T13:07:29.652Z,864.34
2018-06-12T13:08:29.305Z,864.33
2018-06-12T13:10:23.867Z,864.35
2018-06-12T13:11:22.652Z,864.32
2018-06-12T13:13:16.006Z,864.34
2018-06-12T13:14:15.995Z,864.31
2018-06-12T13:16:09.933Z,864.30
2018-06-12T13:17:09.338Z,864.33
2018-06-12T13:19:02.245Z,864.34
2018-06-12T13:20:02.532Z,864.37
2018-06-12T13:21:55.741Z,864.41
2018-06-12T13:22:55.896Z,864.43
2018-06-12T13:24:48.907Z,864.47
2018-06-12T13:25:49.259Z,864.54
2018-06-12T13:27:42.825Z,864.52
2018-06-12T13:28:42.239Z,864.54
2018-06-12T13:30:36.544Z,864.63
2018-06-12T13:31:35.583Z,864.67
2018-06-12T13:33:29.179Z,864.69
2018-06-12T13:34:29.285Z,864.71
2018-06-12T13:36:22.674Z,864.75
2018-06-12T13:37:22.620Z,864.76
2018-06-12T13:39:15.860Z,864.77
2018-06-12T13:40:15.616Z,864.79
2018-06-12T13:42:09.303Z,864.86
2018-06-12T13:43:09.325Z,864.88
2018-06-12T13:45:02.542Z,864.89
2018-06-12T13:46:02.340Z,864.89
2018-06-12T13:47:55.658Z,864.90
2018-06-12T13:48:56.006Z,864.92
2018-06-12T13:50:49.580Z,864.93
2018-06-12T13:51:48.993Z,864.91
2018-06-12T13:53:42.697Z,864.94
2018-06-12T13:54:42.720Z,864.96
2018-06-12T13:56:35.871Z,864.96
2018-06-12T13:57:35.686Z,864.93
2018-06-12T13:59:29.037Z,864.91
2018-06-12T14:00:29.028Z,864.88
2018-06-12T14:02:22.962Z,864.89
2018-06-12T14:03:22.401Z,864.91
2018-06-12T14:05:16.072Z,864.91
2018-06-12T14:06:16.074Z,864.91
2018-06-12T14:08:09.245Z,864.93
2018-06-12T14:09:09.060Z,864.88
2018-06-12T14:11:02.415Z,864.89
2018-06-12T14:12:02.797Z,864.89
2018-06-12T14:13:55.980Z,864.90
2018-06-12T14:14:55.750Z,864.88
2018-06-12T14:16:49.143Z,864.92
2018-06-12T14:17:49.098Z,864.93
2018-06-12T14:19:43.089Z,864.94
2018-06-12T14:20:42.810Z,864.95
2018-06-12T14:22:36.751Z,864.98
2018-06-12T14:23:35.788Z,865.02
2018-06-12T14:25:29.325Z,865.04
2018-06-12T14:26:29.135Z,865.03
2018-06-12T14:28:22.856Z,865.07
2018-06-12T14:29:22.806Z,865.07
2018-06-12T14:31:16.388Z,865.09
2018-06-12T14:32:16.214Z,865.10
2018-06-12T14:34:09.535Z,865.14
2018-06-12T14:35:09.168Z,865.14
2018-06-12T14:37:03.722Z,865.07
2018-06-12T14:38:02.515Z,865.05
2018-06-12T14:39:56.232Z,865.09
2018-06-12T14:40:55.860Z,865.10
2018-06-12T14:42:49.434Z,865.11
2018-06-12T14:43:49.201Z,865.12
2018-06-12T14:45:42.565Z,865.14
2018-06-12T14:46:42.554Z,865.16
2018-06-12T14:48:36.114Z,865.20
2018-06-12T14:49:36.292Z,865.26
2018-06-12T14:51:29.647Z,865.25
2018-06-12T14:52:29.248Z,865.28
2018-06-12T14:54:22.953Z,865.22
2018-06-12T14:55:22.971Z,865.23
2018-06-12T14:57:15.948Z,865.21
2018-06-12T14:58:15.964Z,865.26
2018-06-12T15:00:10.098Z,865.24
2018-06-12T15:01:09.288Z,865.26
2018-06-12T15:03:02.644Z,865.25
2018-06-12T15:04:02.961Z,865.25
2018-06-12T15:05:56.577Z,865.25
2018-06-12T15:06:56.333Z,865.26
2018-06-12T15:08:50.670Z,865.28
2018-06-12T15:09:50.313Z,865.31
2018-06-12T15:11:44.241Z,865.34
2018-06-12T15:12:43.688Z,865.34
2018-06-12T15:14:37.006Z,865.37
2018-06-12T15:15:37.359Z,865.34
2018-06-12T15:17:30.891Z,865.33
2018-06-12T15:18:30.339Z,865.37
2018-06-12T15:20:24.023Z,865.43
2018-06-12T15:21:23.680Z,865.44
2018-06-12T15:23:16.778Z,865.41
2018-06-12T15:24:16.551Z,865.41
2018-06-12T15:26:10.233Z,865.46
2018-06-12T15:27:09.896Z,865.48
2018-06-12T15:29:03.808Z,865.50
2018-06-12T15:30:03.596Z,865.49
2018-06-12T15:31:56.947Z,865.53
2018-06-12T15:32:56.947Z,865.58
2018-06-12T15:34:50.473Z,865.59
2018-06-12T15:35:49.924Z,865.61
2018-06-12T15:37:43.670Z,865.61
2018-06-12T15:38:43.270Z,865.58
2018-06-12T15:40:36.323Z,865.59
2018-06-12T15:41:36.522Z,865.59
2018-06-12T15:43:29.517Z,865.56
2018-06-12T15:44:29.507Z,865.55
2018-06-12T15:46:23.032Z,865.52
2018-06-12T15:47:23.212Z,865.55
2018-06-12T15:49:16.539Z,865.57
2018-06-12T15:50:16.167Z,865.53
2018-06-12T15:52:09.780Z,865.58
2018-06-12T15:53:09.508Z,865.60
2018-06-12T15:55:02.866Z,865.59
2018-06-12T15:56:03.216Z,865.59
2018-06-12T15:57:57.328Z,865.62
2018-06-12T15:58:56.588Z,865.64
2018-06-12T16:00:49.915Z,865.66
2018-06-12T16:01:49.545Z,865.71
2018-06-12T16:03:43.486Z,865.70
2018-06-12T16:04:43.242Z,865.71
2018-06-12T16:06:36.243Z,865.71
2018-06-12T16:07:36.241Z,865.68
2018-06-12T16:09:29.811Z,865.64
2018-06-12T16:10:29.940Z,865.67
2018-06-12T16:12:22.451Z,865.72
2018-06-12T16:13:22.786Z,865.69
2018-06-12T16:15:16.012Z,865.68
2018-06-12T16:16:15.782Z,865.69
2018-06-12T16:18:09.225Z,865.66
2018-06-12T16:19:09.126Z,865.70
2018-06-12T16:21:03.063Z,865.69
2018-06-12T16:22:02.836Z,865.66
2018-06-12T16:23:56.194Z,865.69
2018-06-12T16:24:55.847Z,865.67
2018-06-12T16:26:49.829Z,865.73
2018-06-12T16:27:49.158Z,865.68
2018-06-12T16:29:42.839Z,865.73
2018-06-12T16:30:42.529Z,865.65
2018-06-12T16:32:37.017Z,865.68
2018-06-12T16:33:36.174Z,865.71
2018-06-12T16:35:29.561Z,865.69
2018-06-12T16:36:29.190Z,865.72
2018-06-12T16:38:22.803Z,865.72
2018-06-12T16:39:22.892Z,865.74
2018-06-12T16:41:15.899Z,865.68
2018-06-12T16:42:15.876Z,865.68
2018-06-12T16:44:09.411Z,865.70
2018-06-12T16:45:09.583Z,865.72
2018-06-12T16:47:02.906Z,865.70
2018-06-12T16:48:02.891Z,865.67
2018-06-12T16:49:56.525Z,865.72
2018-06-12T16:50:55.906Z,865.70
2018-06-12T16:52:49.631Z,865.73
2018-06-12T16:53:49.579Z,865.68
2018-06-12T16:55:42.847Z,865.62
2018-06-12T16:56:42.630Z,865.58
2018-06-12T16:58:36.305Z,865.54
2018-06-12T16:59:35.947Z,865.57
2018-06-12T17:01:29.879Z,865.57
2018-06-12T17:02:29.296Z,865.56
2018-06-12T17:04:22.976Z,865.58
2018-06-12T17:05:22.986Z,865.53
2018-06-12T17:07:17.155Z,865.52
2018-06-12T17:08:15.975Z,865.52
2018-06-12T17:10:09.377Z,865.51
2018-06-12T17:11:09.340Z,865.54
2018-06-12T17:13:02.866Z,865.56
2018-06-12T17:14:03.025Z,865.57
2018-06-12T17:15:56.377Z,865.53
2018-06-12T17:16:56.378Z,865.55
2018-06-12T17:18:49.974Z,865.58
2018-06-12T17:19:49.366Z,865.58
2018-06-12T17:21:42.722Z,865.56
2018-06-12T17:22:43.066Z,865.53
2018-06-12T17:24:36.347Z,865.53
2018-06-12T17:25:35.571Z,865.55
2018-06-12T17:27:29.523Z,865.58
2018-06-12T17:28:28.917Z,865.60
2018-06-12T17:30:22.855Z,865.59
2018-06-12T17:31:22.291Z,865.66
2018-06-12T17:33:15.612Z,865.61
2018-06-12T17:34:15.950Z,865.62
2018-06-12T17:36:09.553Z,865.64
2018-06-12T17:37:09.320Z,865.66
2018-06-12T17:39:02.309Z,865.69
2018-06-12T17:40:02.643Z,865.66
2018-06-12T17:41:55.872Z,865.64
2018-06-12T17:42:55.981Z,865.62
2018-06-12T17:44:49.325Z,865.61
2018-06-12T17:45:49.310Z,865.59
2018-06-12T17:47:42.931Z,865.62
2018-06-12T17:48:42.689Z,865.57
2018-06-12T17:50:36.601Z,865.63
2018-06-12T17:51:36.064Z,865.61
2018-06-12T17:53:29.254Z,865.60
2018-06-12T17:54:29.014Z,865.60
2018-06-12T17:56:22.960Z,865.63
2018-06-12T17:57:22.753Z,865.66
2018-06-12T17:59:16.891Z,865.64
2018-06-12T18:00:15.697Z,865.63
2018-06-12T18:02:09.383Z,865.65
2018-06-12T18:03:09.051Z,865.66
2018-06-12T18:05:02.928Z,865.68
2018-06-12T18:06:02.389Z,865.67